Terminal Aerodrome Forecast
Issued by NWS

Home | Current Version | Previous Version | Text Only | Print | Product List | Glossary On
Versions: 1 2 3 4 5 6 7 8 9 10 11 12 13 14 15 16 17 18 19 20 21 22 23 24 25 26 27 28 29 30 31 32 33
000
FTUS41 KALY 271909 AAB
TAFPSF
TAF AMD
KPSF 271909Z 2719/2818 28010G17KT P6SM VCSH FEW030
      TEMPO 2719/2720 BKN025
     FM272000 29008G15KT P6SM VCSH BKN035
     FM280000 VRB03KT P6SM SCT040
     FM280800 00000KT 2SM BR SCT008 BKN030
     FM281400 28006KT P6SM SKC=

USA.gov is the U.S. government's official web portal to all federal, state and local government web resources and services.